Airfield :
LOGIN :

Register | Disclaimer

   EN    FR    IT 

 










Legend :    VFR   Marginal VFR   IFR   Intensive IFR   Very Intensive IFR
Visi :
Ceiling :
>= 8 km
>= 3000ft
5 to 8 km
1000 to 3000 ft
1500m to 5 km
500 to 1000 ft
800 to 1500m
200 to 500 ft
< 800m
< 200 ft
Symbols :   Thunderstorms  Fog  Heavy snow  Heavy precipitations  Wind > 20 kt
SIGMETs :     Misc.  Thunderstorms  Icing  Turbulence  Mountain Waves  Volcanic Ashes






- Airport Elevation : 646 ft
- IATA code : VNO


EYVI - Vilnius int.

CURRENT METAR :
  • 191550Z 20007KT 2400 BR SCT003 OVC027 01/01 Q1031 R19/2///95 TEMPO 0800 FG VV002

EXPIRED METARs :
  • 191520Z 20005KT 3700 BR OVC026 01/01 Q1031 R19/2///95 TEMPO 1500 BR BKN002
  • 191450Z 22005KT 3700 BR SCT003 OVC025 01/01 Q1031 R19/2///95 TEMPO 1500 BR BKN002
  • 191420Z 21006KT 4600 BR SCT004 OVC024 02/01 Q1030 R19/2///95 TEMPO 3000 BR
  • 191350Z 26005KT 5000 BR BKN005 OVC025 02/02 Q1030 R19/2///95 NOSIG
  • 191320Z 26004KT 5000 BR BKN005 OVC026 02/02 Q1030 R19/2///95 NOSIG
  • 191250Z 24004KT 210V280 5000 BR BKN004 OVC027 02/02 Q1030 R19/2///95 NOSIG

TAF AMD TAF EYVI
Valid from the 19 at 13:00 until the 20 at 12:00 UTC


191346Z 1913/2012 VRB05KT 5000 BR BKN005 BKN015
TEMPO 1914/1924 1500 BKN002
BECMG 2000/2002 8000 OVC010
TEMPO 2002/2012 BKN005



MET'MAP, your aeronautical weather chart ! - Copyright ORBIFLY December 2007 - Disclaimer

ORBIFLY MET'MAP TEAM :

Programming & Development : Alexandra Zaïnal
Concept & original design : Baudouin d'Aumeries
Assistance for programming : Marc-Olivier Méhu
Technical & hardware support : Manuel Goepfert

Contact : metmap@orbifly.com




SOURCES & CREDITS :

   NOAA